Tyler, TX (75703)

8:53 AM CST en Diciembre 22, 2014 (GMT -0600)
Old J'ville/S. Robertson | Change Station
CLOSE
Current Station
Estación meteorológica personal
Location: Tyler, TX
Altura: 574 ft
Estaciones meteorológicas cercanas

Alt 574 ft 32.31 °N, 95.32 °W | Updated 12 seconds ago

Nublado
Nublado
59.4 ° F
Sensación térmica 59.4 ° F
N
5.0
Viento Variable Viento desde OSO
Gusts 17.0 mph

Hoy
Alta -- | Baja -- ° F
--% Posibilidad de precipitaciones
Ayer
Alta -- | Baja -- ° F
Precip. -- pul
7:18 AM 5:20 PM
Luna nueva, 0% visible
Presión 29.66 pul
Visibilidad 10.0 Millas
Nubes Muy nublado 1500 ft
Muy nublado 2200 ft
Nublado 2800 ft
Punto de rocío 56 ° F
Humedad 90%
Precipitaciones 0.00 pul
Espesor de la nieve No disponible.
UV 0 de una escala de 12
Polen 3.50 de una escala de 12
Calidad del aire No disponible.
Flu Activity No disponible.
METAR KTYR 221353Z 20013KT 10SM BKN015 BKN022 OVC028 15/12 A2966 RMK AO2 SLP042 T01500117

More Conditions Fewer Conditions

Presión 29.66 pul
Visibilidad 10.0 Millas
Nubes Muy nublado 1500 ft
Muy nublado 2200 ft
Nublado 2800 ft
Punto de rocío 56 ° F
Humedad 90%
Precipitaciones 0.00 pul
Espesor de la nieve No disponible.
UV 0 de una escala de 12
Polen 3.50 de una escala de 12
Calidad del aire No disponible.
Flu Activity No disponible.
METAR KTYR 221353Z 20013KT 10SM BKN015 BKN022 OVC028 15/12 A2966 RMK AO2 SLP042 T01500117

More Conditions Fewer Conditions

10-Day Weather Forecast

Almanac

Astronomía

Dec. 22, 2014 Salida Puesta
Hora real
Crepúsculo civil
Crepúsculo náutico
Crepúsculo astronómico
Luna
Horas de luz
Horas de luz
Tomorrow will be .
, % of the Moon is Illuminated

Extremos de hoy

Máximos del estado Bajos del estado

Community

WunderPhotos

Upload Photos

1,779,608 ¡fotos cargadas!

WunderBlogs® & News

Nearby

Calidad del aire

  Calidad del aire Índice AQ Contaminante
Not available.

Grosos de nieve

Estación Profundido Altura

Actividad de terremotos

Ciudad Distance Mag. Tiempo y dato
Magnitud mínima muestra es 2,5.

Temperaturas de aguas costeras

Lugar Temperatura

Estaciones meteorológicas cercanas